createdAt,value
2022-10-22T00:00:27.203Z,0
2022-10-22T00:01:26.753Z,0
2022-10-22T00:02:28.109Z,0
2022-10-22T00:03:26.764Z,0
2022-10-22T00:04:28.317Z,0
2022-10-22T00:05:26.754Z,0
2022-10-22T00:06:26.877Z,0
2022-10-22T00:07:26.743Z,0
2022-10-22T00:08:29.696Z,0
2022-10-22T00:09:26.887Z,0
2022-10-22T00:10:26.761Z,0
2022-10-22T00:11:26.771Z,0
2022-10-22T00:12:26.762Z,0
2022-10-22T00:13:27.109Z,0
2022-10-22T00:14:26.793Z,0
2022-10-22T00:15:26.760Z,0
2022-10-22T00:16:26.768Z,0
2022-10-22T00:17:26.780Z,0
2022-10-22T00:18:26.792Z,0
2022-10-22T00:19:29.967Z,0
2022-10-22T00:20:26.770Z,0
2022-10-22T00:21:26.777Z,0
2022-10-22T00:22:26.762Z,0
2022-10-22T00:23:26.777Z,0
2022-10-22T00:24:29.057Z,0
2022-10-22T00:25:26.783Z,0
2022-10-22T00:26:26.807Z,0
2022-10-22T00:27:26.938Z,0
2022-10-22T00:28:26.908Z,0
2022-10-22T00:29:26.862Z,0
2022-10-22T00:30:29.786Z,0
2022-10-22T00:31:26.788Z,0
2022-10-22T00:32:26.778Z,0
2022-10-22T00:33:26.811Z,0
2022-10-22T00:34:26.835Z,0
2022-10-22T00:35:27.952Z,0
2022-10-22T00:36:26.820Z,0
2022-10-22T00:37:26.788Z,0
2022-10-22T00:38:26.817Z,0
2022-10-22T00:39:26.950Z,0
2022-10-22T00:40:26.792Z,0
2022-10-22T00:41:26.809Z,0
2022-10-22T00:42:27.872Z,0
2022-10-22T00:43:26.825Z,0
2022-10-22T00:44:26.883Z,0
2022-10-22T00:45:26.893Z,0
2022-10-22T00:46:27.963Z,0
2022-10-22T00:47:26.840Z,0
2022-10-22T00:48:26.861Z,0
2022-10-22T00:49:26.849Z,0
2022-10-22T00:50:26.879Z,0
2022-10-22T00:51:26.832Z,0
2022-10-22T00:52:26.815Z,0
2022-10-22T00:53:26.832Z,0
2022-10-22T00:54:26.843Z,0
2022-10-22T00:55:26.827Z,0
2022-10-22T00:59:41.631Z,0
2022-10-22T01:00:26.863Z,0
2022-10-22T01:01:27.339Z,0
2022-10-22T01:02:29.879Z,0
2022-10-22T01:03:26.840Z,0
2022-10-22T01:04:26.828Z,0
2022-10-22T01:05:26.883Z,0
2022-10-22T01:06:26.840Z,0
2022-10-22T01:07:26.839Z,0
2022-10-22T01:08:26.872Z,0
2022-10-22T01:09:26.849Z,0
2022-10-22T01:10:26.868Z,0
2022-10-22T01:11:26.845Z,0
2022-10-22T01:12:26.856Z,0
2022-10-22T01:13:28.084Z,0
2022-10-22T01:14:26.876Z,0
2022-10-22T01:15:26.891Z,0
2022-10-22T01:16:26.888Z,0
2022-10-22T01:17:27.957Z,0
2022-10-22T01:18:29.911Z,0
2022-10-22T01:19:26.863Z,0
2022-10-22T01:20:29.911Z,0
2022-10-22T01:21:26.955Z,0
2022-10-22T01:22:26.870Z,0
2022-10-22T01:23:26.872Z,0
2022-10-22T01:24:29.756Z,0
2022-10-22T01:27:26.880Z,0
2022-10-22T01:28:26.882Z,0
2022-10-22T01:29:29.880Z,0
2022-10-22T01:30:26.886Z,0
2022-10-22T01:31:26.900Z,0
2022-10-22T01:32:27.979Z,0
2022-10-22T01:33:26.917Z,0
2022-10-22T01:34:26.889Z,0
2022-10-22T01:35:28.582Z,0
2022-10-22T01:36:26.901Z,0
2022-10-22T01:37:26.940Z,0
2022-10-22T01:38:26.900Z,0
2022-10-22T01:39:26.928Z,0
2022-10-22T01:40:30.038Z,0
2022-10-22T01:41:26.908Z,0
2022-10-22T01:42:26.946Z,0
2022-10-22T01:43:26.907Z,0
2022-10-22T01:44:27.076Z,0
2022-10-22T01:45:26.897Z,0
2022-10-22T01:46:29.712Z,0
2022-10-22T01:47:26.946Z,0
2022-10-22T01:48:26.938Z,0
2022-10-22T01:49:26.929Z,0
2022-10-22T01:50:26.913Z,0
2022-10-22T01:51:29.709Z,0
2022-10-22T01:52:26.939Z,0
2022-10-22T01:53:26.947Z,0
2022-10-22T01:54:26.940Z,0
2022-10-22T01:55:26.970Z,0
2022-10-22T01:56:26.985Z,0
2022-10-22T01:57:32.735Z,0
2022-10-22T01:58:26.950Z,0
2022-10-22T01:59:31.028Z,0
2022-10-22T02:00:27.096Z,0
2022-10-22T02:01:26.999Z,0
2022-10-22T02:02:29.767Z,0
2022-10-22T02:03:30.515Z,0
2022-10-22T02:04:26.940Z,0
2022-10-22T02:05:26.962Z,0
2022-10-22T02:06:26.937Z,0
2022-10-22T02:07:26.968Z,0
2022-10-22T02:08:30.016Z,0
2022-10-22T02:09:26.991Z,0
2022-10-22T02:10:26.938Z,0
2022-10-22T02:11:27.099Z,0
2022-10-22T02:12:26.985Z,0
2022-10-22T02:13:29.711Z,0
2022-10-22T02:14:26.953Z,0
2022-10-22T02:15:26.961Z,0
2022-10-22T02:16:26.995Z,0
2022-10-22T02:17:26.974Z,0
2022-10-22T02:18:27.001Z,0
2022-10-22T02:19:26.991Z,0
2022-10-22T02:20:26.960Z,0
2022-10-22T02:21:27.005Z,0
2022-10-22T02:22:27.169Z,0
2022-10-22T02:23:26.970Z,0
2022-10-22T02:24:30.023Z,0
2022-10-22T02:25:27.035Z,0
2022-10-22T02:26:26.981Z,0
2022-10-22T02:27:32.866Z,0
2022-10-22T02:28:26.987Z,0
2022-10-22T02:29:26.980Z,0
2022-10-22T02:30:27.042Z,0
2022-10-22T02:31:27.004Z,0
2022-10-22T02:32:27.047Z,0
2022-10-22T02:33:26.991Z,0
2022-10-22T02:34:27.032Z,0
2022-10-22T02:35:29.812Z,0
2022-10-22T02:36:27.051Z,0
2022-10-22T02:37:27.042Z,0
2022-10-22T02:38:27.005Z,0
2022-10-22T02:39:27.010Z,0
2022-10-22T02:40:27.085Z,0
2022-10-22T02:41:27.027Z,0
2022-10-22T02:42:27.047Z,0
2022-10-22T02:43:27.002Z,0
2022-10-22T02:44:27.016Z,0
2022-10-22T02:45:27.034Z,0
2022-10-22T02:46:30.033Z,0
2022-10-22T02:47:27.020Z,0
2022-10-22T02:48:31.809Z,0
2022-10-22T02:49:27.031Z,0
2022-10-22T02:50:27.056Z,0
2022-10-22T02:51:30.053Z,0
2022-10-22T02:52:27.051Z,0
2022-10-22T02:53:27.073Z,0
2022-10-22T02:54:27.037Z,0
2022-10-22T02:55:27.048Z,0
2022-10-22T02:56:27.072Z,0
2022-10-22T02:57:31.265Z,0
2022-10-22T02:59:28.055Z,0
2022-10-22T03:00:27.070Z,0
2022-10-22T03:01:27.177Z,0
2022-10-22T03:02:28.116Z,0
2022-10-22T03:03:27.047Z,0
2022-10-22T03:04:27.037Z,0
2022-10-22T03:05:27.048Z,0
2022-10-22T03:06:28.259Z,0
2022-10-22T03:07:29.213Z,0
2022-10-22T03:08:27.091Z,0
2022-10-22T03:09:33.749Z,0
2022-10-22T03:10:27.082Z,0
2022-10-22T03:11:28.122Z,0
2022-10-22T03:12:27.083Z,0
2022-10-22T03:13:27.094Z,0
2022-10-22T03:14:27.062Z,0
2022-10-22T03:16:27.104Z,0
2022-10-22T03:17:27.089Z,0
2022-10-22T03:18:27.067Z,0
2022-10-22T03:19:27.060Z,0
2022-10-22T03:20:27.090Z,0
2022-10-22T03:21:27.088Z,0
2022-10-22T03:22:27.159Z,0
2022-10-22T03:23:27.097Z,0
2022-10-22T03:24:27.070Z,0
2022-10-22T03:25:27.104Z,0
2022-10-22T03:26:27.075Z,0
2022-10-22T03:27:28.043Z,0
2022-10-22T03:28:27.084Z,0
2022-10-22T03:29:29.876Z,0
2022-10-22T03:30:27.075Z,0
2022-10-22T03:31:27.086Z,0
2022-10-22T03:32:27.112Z,0
2022-10-22T03:33:27.097Z,0
2022-10-22T03:34:27.102Z,0
2022-10-22T03:35:27.109Z,0
2022-10-22T03:36:27.124Z,0
2022-10-22T03:37:27.125Z,0
2022-10-22T03:38:27.126Z,0
2022-10-22T03:39:27.124Z,0
2022-10-22T03:40:30.078Z,0
2022-10-22T03:41:27.105Z,0
2022-10-22T03:42:27.135Z,0
2022-10-22T03:43:27.103Z,0
2022-10-22T03:44:27.113Z,0
2022-10-22T03:45:30.521Z,0
2022-10-22T03:46:27.131Z,0
2022-10-22T03:47:27.157Z,0
2022-10-22T03:48:27.121Z,0
2022-10-22T03:49:27.106Z,0
2022-10-22T03:50:27.124Z,0
2022-10-22T03:51:30.996Z,0
2022-10-22T03:52:27.151Z,0
2022-10-22T03:53:27.125Z,0
2022-10-22T03:54:27.272Z,0
2022-10-22T03:55:27.155Z,0
2022-10-22T03:56:30.007Z,0
2022-10-22T03:57:27.149Z,0
2022-10-22T03:58:27.125Z,0
2022-10-22T03:59:27.132Z,0
2022-10-22T04:00:27.131Z,0
2022-10-22T04:01:27.437Z,0
2022-10-22T04:02:28.336Z,0
2022-10-22T04:03:27.136Z,0
2022-10-22T04:04:27.140Z,0
2022-10-22T04:05:27.163Z,0
2022-10-22T04:06:27.138Z,0
2022-10-22T04:07:29.944Z,0
2022-10-22T04:08:27.145Z,0
2022-10-22T04:09:27.138Z,0
2022-10-22T04:10:27.186Z,0
2022-10-22T04:11:27.187Z,0
2022-10-22T04:12:27.185Z,0
2022-10-22T04:13:30.221Z,0
2022-10-22T04:14:27.162Z,0
2022-10-22T04:15:27.162Z,0
2022-10-22T04:16:32.914Z,0
2022-10-22T04:17:27.194Z,0
2022-10-22T04:18:29.981Z,0
2022-10-22T04:19:27.316Z,0
2022-10-22T04:20:27.167Z,0
2022-10-22T04:21:27.208Z,0
2022-10-22T04:22:27.171Z,0
2022-10-22T04:23:27.317Z,0
2022-10-22T04:24:29.937Z,0
2022-10-22T04:25:27.177Z,0
2022-10-22T04:26:27.284Z,0
2022-10-22T04:27:27.210Z,0
2022-10-22T04:28:27.198Z,0
2022-10-22T04:29:30.306Z,0
2022-10-22T04:30:27.186Z,0
2022-10-22T04:31:27.194Z,0
2022-10-22T04:32:27.198Z,0
2022-10-22T04:33:27.226Z,0
2022-10-22T04:34:27.185Z,0
2022-10-22T04:35:27.403Z,0
2022-10-22T04:36:27.197Z,0
2022-10-22T04:37:27.199Z,0
2022-10-22T04:38:27.193Z,0
2022-10-22T04:39:27.193Z,0
2022-10-22T04:40:33.059Z,0
2022-10-22T04:41:27.212Z,0
2022-10-22T04:42:27.222Z,0
2022-10-22T04:43:27.233Z,0
2022-10-22T04:44:27.593Z,0
2022-10-22T04:45:27.211Z,0
2022-10-22T04:46:27.199Z,0
2022-10-22T04:47:27.210Z,0
2022-10-22T04:48:27.233Z,0
2022-10-22T04:49:27.360Z,0
2022-10-22T04:50:27.228Z,0
2022-10-22T04:51:30.231Z,0
2022-10-22T04:52:27.240Z,0
2022-10-22T04:53:27.230Z,0
2022-10-22T04:54:32.951Z,0
2022-10-22T04:55:27.498Z,0
2022-10-22T04:56:27.413Z,0
2022-10-22T04:57:27.234Z,0
2022-10-22T04:58:27.254Z,0
2022-10-22T04:59:27.253Z,0
2022-10-22T05:00:27.262Z,0
2022-10-22T05:01:27.818Z,0
2022-10-22T05:02:36.122Z,0
2022-10-22T05:03:27.287Z,0
2022-10-22T05:04:27.264Z,0
2022-10-22T05:05:27.276Z,0
2022-10-22T05:06:27.254Z,0
2022-10-22T05:07:27.256Z,0
2022-10-22T05:08:27.278Z,0
2022-10-22T05:09:27.403Z,0
2022-10-22T05:10:27.312Z,0
2022-10-22T05:11:27.247Z,0
2022-10-22T05:12:27.258Z,0
2022-10-22T05:13:28.462Z,0
2022-10-22T05:14:27.269Z,0
2022-10-22T05:15:27.281Z,0
2022-10-22T05:16:27.284Z,0
2022-10-22T05:17:27.278Z,0
2022-10-22T05:18:29.558Z,0
2022-10-22T05:19:27.286Z,0
2022-10-22T05:20:27.263Z,0
2022-10-22T05:21:27.295Z,0
2022-10-22T05:22:27.290Z,0
2022-10-22T05:23:27.296Z,0
2022-10-22T05:24:30.093Z,0
2022-10-22T05:25:30.336Z,0
2022-10-22T05:26:27.282Z,0
2022-10-22T05:27:27.323Z,0
2022-10-22T05:28:27.324Z,0
2022-10-22T05:29:45.267Z,0
2022-10-22T05:30:27.297Z,0
2022-10-22T05:31:27.478Z,0
2022-10-22T05:32:27.337Z,0
2022-10-22T05:33:30.971Z,0
2022-10-22T05:34:27.300Z,0
2022-10-22T05:35:27.300Z,0
2022-10-22T05:36:27.297Z,0
2022-10-22T05:37:27.312Z,0
2022-10-22T05:38:27.333Z,4
2022-10-22T05:39:27.336Z,4
2022-10-22T05:40:38.373Z,0
2022-10-22T05:41:27.320Z,0
2022-10-22T05:42:27.312Z,0
2022-10-22T05:43:27.323Z,0
2022-10-22T05:44:27.324Z,4
2022-10-22T05:45:27.329Z,4
2022-10-22T05:46:29.837Z,4
2022-10-22T05:47:27.326Z,0
2022-10-22T05:48:30.394Z,0
2022-10-22T05:49:27.311Z,4
2022-10-22T05:50:27.318Z,4
2022-10-22T05:51:27.334Z,4
2022-10-22T05:52:27.337Z,4
2022-10-22T05:53:27.350Z,4
2022-10-22T05:54:27.338Z,4
2022-10-22T05:55:27.326Z,4
2022-10-22T05:56:30.428Z,4
2022-10-22T05:57:27.339Z,4
2022-10-22T05:58:27.326Z,8
2022-10-22T05:59:30.353Z,8
2022-10-22T06:00:27.359Z,8
2022-10-22T06:01:27.368Z,8
2022-10-22T06:02:27.648Z,8
2022-10-22T06:03:27.353Z,8
2022-10-22T06:04:27.400Z,12
2022-10-22T06:05:27.204Z,12
2022-10-22T06:06:27.365Z,12
2022-10-22T06:07:30.410Z,12
2022-10-22T06:08:27.388Z,12
2022-10-22T06:09:27.589Z,8
2022-10-22T06:10:27.366Z,8
2022-10-22T06:11:27.982Z,8
2022-10-22T06:12:30.381Z,8
2022-10-22T06:13:27.375Z,8
2022-10-22T06:14:27.392Z,8
2022-10-22T06:15:27.386Z,8
2022-10-22T06:16:27.363Z,8
2022-10-22T06:17:27.445Z,8
2022-10-22T06:18:30.524Z,8
2022-10-22T06:19:27.402Z,8
2022-10-22T06:20:27.451Z,8
2022-10-22T06:21:27.416Z,12
2022-10-22T06:22:27.394Z,12
2022-10-22T06:23:30.397Z,12
2022-10-22T06:24:27.400Z,16
2022-10-22T06:25:27.406Z,16
2022-10-22T06:26:30.182Z,24
2022-10-22T06:27:27.371Z,24
2022-10-22T06:28:28.525Z,24
2022-10-22T06:29:30.347Z,28
2022-10-22T06:30:28.433Z,32
2022-10-22T06:31:27.409Z,32
2022-10-22T06:32:27.398Z,32
2022-10-22T06:33:27.438Z,32
2022-10-22T06:34:30.439Z,36
2022-10-22T06:35:27.413Z,36
2022-10-22T06:36:27.533Z,36
2022-10-22T06:37:27.399Z,40
2022-10-22T06:38:27.399Z,40
2022-10-22T06:39:27.422Z,40
2022-10-22T06:40:30.427Z,40
2022-10-22T06:41:33.388Z,44
2022-10-22T06:42:27.439Z,40
2022-10-22T06:43:30.520Z,44
2022-10-22T06:44:27.423Z,44
2022-10-22T06:45:30.569Z,44
2022-10-22T06:46:27.421Z,44
2022-10-22T06:47:27.449Z,44
2022-10-22T06:48:27.434Z,44
2022-10-22T06:49:30.418Z,44
2022-10-22T06:50:27.506Z,40
2022-10-22T06:51:30.447Z,44
2022-10-22T06:52:27.462Z,44
2022-10-22T06:53:28.540Z,48
2022-10-22T06:54:27.458Z,44
2022-10-22T06:55:27.458Z,48
2022-10-22T06:56:28.730Z,48
2022-10-22T06:57:27.508Z,52
2022-10-22T06:58:27.452Z,52
2022-10-22T06:59:27.485Z,56
2022-10-22T07:00:27.946Z,56
2022-10-22T07:01:27.900Z,56
2022-10-22T07:02:27.466Z,60
2022-10-22T07:03:27.457Z,60
2022-10-22T07:04:27.511Z,68
2022-10-22T07:05:28.038Z,72
2022-10-22T07:06:27.570Z,80
2022-10-22T07:07:31.413Z,84
2022-10-22T07:08:27.595Z,92
2022-10-22T07:09:27.526Z,100
2022-10-22T07:10:33.072Z,104
2022-10-22T07:11:27.657Z,112
2022-10-22T07:12:27.484Z,120
2022-10-22T07:13:30.830Z,120
2022-10-22T07:14:27.582Z,124
2022-10-22T07:15:28.519Z,128
2022-10-22T07:16:34.843Z,136
2022-10-22T07:17:27.635Z,136
2022-10-22T07:18:30.575Z,136
2022-10-22T07:19:28.540Z,144
2022-10-22T07:20:27.502Z,144
2022-10-22T07:21:27.502Z,144
2022-10-22T07:22:27.519Z,140
2022-10-22T07:23:27.714Z,140
2022-10-22T07:24:27.515Z,140
2022-10-22T07:25:30.660Z,140
2022-10-22T07:26:27.507Z,148
2022-10-22T07:27:27.511Z,152
2022-10-22T07:28:27.485Z,156
2022-10-22T07:29:30.472Z,164
2022-10-22T07:30:27.525Z,168
2022-10-22T07:31:27.503Z,180
2022-10-22T07:32:30.748Z,192
2022-10-22T07:33:27.628Z,224
2022-10-22T07:34:27.568Z,244
2022-10-22T07:35:27.530Z,244
2022-10-22T07:36:27.501Z,300
2022-10-22T07:37:27.534Z,292
2022-10-22T07:38:27.915Z,472
2022-10-22T07:39:27.544Z,356
2022-10-22T07:40:30.726Z,628
2022-10-22T07:41:27.575Z,636
2022-10-22T07:42:27.695Z,480
2022-10-22T07:43:27.569Z,772
2022-10-22T07:44:27.539Z,532
2022-10-22T07:45:30.352Z,656
2022-10-22T07:46:27.511Z,408
2022-10-22T07:47:27.521Z,404
2022-10-22T07:48:27.515Z,824
2022-10-22T07:49:27.545Z,396
2022-10-22T07:50:27.634Z,388
2022-10-22T07:51:30.651Z,404
2022-10-22T07:52:27.517Z,464
2022-10-22T07:53:28.011Z,856
2022-10-22T07:54:27.618Z,1068
2022-10-22T07:55:27.547Z,944
2022-10-22T07:56:30.628Z,1428
2022-10-22T07:57:27.629Z,976
2022-10-22T07:58:27.539Z,1024
2022-10-22T07:59:27.577Z,720
2022-10-22T08:00:31.433Z,516
2022-10-22T08:01:27.755Z,672
2022-10-22T08:02:28.048Z,684
2022-10-22T08:03:27.618Z,1012
2022-10-22T08:04:27.574Z,1176
2022-10-22T08:05:27.548Z,1304
2022-10-22T08:06:27.407Z,848
2022-10-22T08:07:27.516Z,1160
2022-10-22T08:08:33.234Z,1404
2022-10-22T08:09:27.569Z,820
2022-10-22T08:10:27.665Z,1016
2022-10-22T08:11:27.590Z,1340
2022-10-22T08:12:27.575Z,1128
2022-10-22T08:13:30.299Z,500
2022-10-22T08:14:27.567Z,1328
2022-10-22T08:15:27.566Z,1060
2022-10-22T08:16:27.575Z,1112
2022-10-22T08:17:27.433Z,1052
2022-10-22T08:18:27.574Z,1252
2022-10-22T08:19:27.619Z,892
2022-10-22T08:20:30.785Z,1108
2022-10-22T08:21:27.582Z,1236
2022-10-22T08:22:27.601Z,844
2022-10-22T08:23:34.355Z,1092
2022-10-22T08:24:27.651Z,1380
2022-10-22T08:25:27.586Z,1284
2022-10-22T08:26:27.661Z,2196
2022-10-22T08:27:27.610Z,2176
2022-10-22T08:28:29.203Z,1440
2022-10-22T08:29:27.626Z,1476
2022-10-22T08:30:27.602Z,2032
2022-10-22T08:31:27.597Z,2020
2022-10-22T08:33:27.643Z,1928
2022-10-22T08:34:33.247Z,1940
2022-10-22T08:35:27.606Z,1844
2022-10-22T08:36:27.596Z,1540
2022-10-22T08:37:27.621Z,1124
2022-10-22T08:38:27.613Z,1088
2022-10-22T08:39:29.339Z,1536
2022-10-22T08:40:27.638Z,960
2022-10-22T08:41:27.622Z,1392
2022-10-22T08:42:27.634Z,1800
2022-10-22T08:43:27.634Z,1648
2022-10-22T08:44:27.886Z,1508
2022-10-22T08:45:30.444Z,1532
2022-10-22T08:46:27.623Z,1588
2022-10-22T08:47:29.368Z,1260
2022-10-22T08:48:27.636Z,1500
2022-10-22T08:49:44.280Z,1420
2022-10-22T08:50:30.793Z,1540
2022-10-22T08:51:27.631Z,1644
2022-10-22T08:52:27.630Z,1664
2022-10-22T08:53:27.632Z,1544
2022-10-22T08:54:27.701Z,1456
2022-10-22T08:55:27.631Z,1616
2022-10-22T08:56:30.709Z,1688
2022-10-22T08:57:27.973Z,1216
2022-10-22T08:58:27.677Z,1412
2022-10-22T08:59:27.688Z,1600
2022-10-22T09:00:27.681Z,1644
2022-10-22T09:01:30.665Z,1380
2022-10-22T09:02:27.642Z,1028
2022-10-22T09:03:27.665Z,980
2022-10-22T09:04:27.808Z,556
2022-10-22T09:05:27.660Z,904
2022-10-22T09:06:27.697Z,744
2022-10-22T09:07:30.547Z,908
2022-10-22T09:08:27.653Z,688
2022-10-22T09:09:27.680Z,592
2022-10-22T09:10:27.658Z,532
2022-10-22T09:11:27.519Z,508
2022-10-22T09:12:31.617Z,568
2022-10-22T09:13:27.684Z,532
2022-10-22T09:14:27.753Z,460
2022-10-22T09:15:27.720Z,440
2022-10-22T09:16:27.756Z,516
2022-10-22T09:17:27.668Z,588
2022-10-22T09:18:30.744Z,964
2022-10-22T09:19:27.691Z,548
2022-10-22T09:20:28.055Z,496
2022-10-22T09:21:27.945Z,560
2022-10-22T09:22:27.904Z,612
2022-10-22T09:23:28.777Z,564
2022-10-22T09:24:32.135Z,472
2022-10-22T09:25:27.697Z,420
2022-10-22T09:26:27.735Z,352
2022-10-22T09:27:27.825Z,308
2022-10-22T09:28:27.867Z,288
2022-10-22T09:29:31.365Z,292
2022-10-22T09:30:27.723Z,292
2022-10-22T09:31:27.727Z,280
2022-10-22T09:32:27.784Z,248
2022-10-22T09:33:30.869Z,228
2022-10-22T09:34:30.526Z,252
2022-10-22T09:35:27.745Z,228
2022-10-22T09:36:27.739Z,288
2022-10-22T09:37:27.968Z,364
2022-10-22T09:38:27.807Z,428
2022-10-22T09:39:27.901Z,1112
2022-10-22T09:40:27.755Z,952
2022-10-22T09:41:27.773Z,932
2022-10-22T09:42:27.722Z,1064
2022-10-22T09:43:27.959Z,636
2022-10-22T09:44:27.784Z,724
2022-10-22T09:45:30.980Z,668
2022-10-22T09:46:27.734Z,1196
2022-10-22T09:48:03.801Z,660
2022-10-22T09:48:27.745Z,680
2022-10-22T09:49:27.741Z,640
2022-10-22T09:50:27.763Z,668
2022-10-22T09:51:28.225Z,932
2022-10-22T09:52:30.769Z,836
2022-10-22T09:53:28.046Z,572
2022-10-22T09:54:27.802Z,552
2022-10-22T09:55:27.763Z,560
2022-10-22T09:56:48.667Z,584
2022-10-22T09:57:27.796Z,464
2022-10-22T09:58:30.882Z,548
2022-10-22T09:59:28.816Z,464
2022-10-22T10:00:27.810Z,500
2022-10-22T10:01:27.943Z,740
2022-10-22T10:02:45.158Z,564
2022-10-22T10:03:28.148Z,612
2022-10-22T10:04:27.880Z,532
2022-10-22T10:05:28.080Z,572
2022-10-22T10:06:27.844Z,1680
2022-10-22T10:07:30.952Z,616
2022-10-22T10:08:27.762Z,492
2022-10-22T10:09:28.415Z,424
2022-10-22T10:10:27.866Z,1716
2022-10-22T10:11:33.869Z,1580
2022-10-22T10:12:27.787Z,1528
2022-10-22T10:13:27.806Z,1580
2022-10-22T10:14:28.318Z,800
2022-10-22T10:15:27.817Z,476
2022-10-22T10:16:30.664Z,816
2022-10-22T10:17:27.802Z,304
2022-10-22T10:18:30.579Z,604
2022-10-22T10:19:30.556Z,1580
2022-10-22T10:20:28.159Z,824
2022-10-22T10:21:28.048Z,1552
2022-10-22T10:22:27.812Z,432
2022-10-22T10:23:32.309Z,1400
2022-10-22T10:24:30.841Z,320
2022-10-22T10:25:27.818Z,692
2022-10-22T10:26:27.829Z,1540
2022-10-22T10:27:28.056Z,1496
2022-10-22T10:28:27.813Z,1400
2022-10-22T10:29:28.099Z,784
2022-10-22T10:30:27.843Z,1416
2022-10-22T10:31:27.821Z,1332
2022-10-22T10:32:31.261Z,1316
2022-10-22T10:33:27.979Z,680
2022-10-22T10:34:27.819Z,1304
2022-10-22T10:35:27.936Z,1364
2022-10-22T10:36:27.818Z,1392
2022-10-22T10:37:27.852Z,1424
2022-10-22T10:38:34.373Z,1412
2022-10-22T10:39:30.612Z,1408
2022-10-22T10:40:27.845Z,1412
2022-10-22T10:41:27.862Z,1416
2022-10-22T10:42:28.752Z,1420
2022-10-22T10:43:27.831Z,1424
2022-10-22T10:44:27.847Z,1444
2022-10-22T10:45:27.869Z,588
2022-10-22T10:46:27.854Z,1436
2022-10-22T10:47:27.845Z,1396
2022-10-22T10:48:27.893Z,1420
2022-10-22T10:49:27.991Z,1432
2022-10-22T10:50:30.689Z,1468
2022-10-22T10:51:27.860Z,1308
2022-10-22T10:52:28.318Z,776
2022-10-22T10:53:27.879Z,976
2022-10-22T10:54:28.016Z,472
2022-10-22T10:55:27.915Z,456
2022-10-22T10:56:27.871Z,456
2022-10-22T10:57:27.874Z,448
2022-10-22T10:58:27.922Z,436
2022-10-22T10:59:27.894Z,440
2022-10-22T11:00:27.920Z,464
2022-10-22T11:01:30.905Z,456
2022-10-22T11:02:27.888Z,464
2022-10-22T11:03:27.877Z,472
2022-10-22T11:04:27.959Z,416
2022-10-22T11:05:27.932Z,388
2022-10-22T11:06:32.491Z,364
2022-10-22T11:07:41.416Z,360
2022-10-22T11:08:27.890Z,384
2022-10-22T11:09:28.915Z,668
2022-10-22T11:10:27.919Z,316
2022-10-22T11:11:27.997Z,288
2022-10-22T11:12:30.974Z,296
2022-10-22T11:13:27.909Z,896
2022-10-22T11:14:32.444Z,1208
2022-10-22T11:15:27.953Z,484
2022-10-22T11:16:27.914Z,348
2022-10-22T11:17:30.700Z,584
2022-10-22T11:18:27.902Z,380
2022-10-22T11:20:00.421Z,352
2022-10-22T11:20:27.925Z,356
2022-10-22T11:21:27.894Z,360
2022-10-22T11:22:33.323Z,340
2022-10-22T11:23:35.766Z,304
2022-10-22T11:24:27.911Z,304
2022-10-22T11:25:27.950Z,260
2022-10-22T11:26:27.911Z,1068
2022-10-22T11:27:27.945Z,1060
2022-10-22T11:28:31.141Z,1052
2022-10-22T11:29:32.049Z,1056
2022-10-22T11:30:28.032Z,1048
2022-10-22T11:31:27.979Z,304
2022-10-22T11:32:27.926Z,1044
2022-10-22T11:33:27.927Z,304
2022-10-22T11:34:40.453Z,1036
2022-10-22T11:35:32.528Z,1056
2022-10-22T11:36:28.185Z,1048
2022-10-22T11:37:27.947Z,1028
2022-10-22T11:38:29.059Z,1008
2022-10-22T11:39:31.062Z,1004
2022-10-22T11:40:27.963Z,1036
2022-10-22T11:41:27.941Z,1044
2022-10-22T11:42:27.977Z,372
2022-10-22T11:43:27.948Z,388
2022-10-22T11:44:27.980Z,496
2022-10-22T11:45:30.729Z,432
2022-10-22T11:46:28.021Z,412
2022-10-22T11:47:28.186Z,428
2022-10-22T11:48:27.968Z,1100
2022-10-22T11:49:27.950Z,516
2022-10-22T11:50:30.948Z,524
2022-10-22T11:51:27.969Z,1104
2022-10-22T11:52:27.953Z,1064
2022-10-22T11:53:27.956Z,1024
2022-10-22T11:54:27.985Z,988
2022-10-22T11:55:28.407Z,968
2022-10-22T11:56:30.910Z,952
2022-10-22T11:57:28.032Z,952
2022-10-22T11:58:30.737Z,936
2022-10-22T11:59:28.027Z,396
2022-10-22T12:00:30.749Z,904
2022-10-22T12:01:31.218Z,880
2022-10-22T12:02:28.025Z,864
2022-10-22T12:03:28.002Z,852
2022-10-22T12:04:31.385Z,840
2022-10-22T12:05:28.032Z,824
2022-10-22T12:06:29.099Z,808
2022-10-22T12:07:30.930Z,808
2022-10-22T12:08:27.994Z,804
2022-10-22T12:09:28.000Z,240
2022-10-22T12:10:28.183Z,348
2022-10-22T12:11:28.058Z,304
2022-10-22T12:12:30.844Z,820
2022-10-22T12:13:27.993Z,824
2022-10-22T12:14:28.019Z,828
2022-10-22T12:15:28.025Z,832
2022-10-22T12:17:00.333Z,824
2022-10-22T12:17:28.005Z,820
2022-10-22T12:18:28.027Z,624
2022-10-22T12:19:28.006Z,784
2022-10-22T12:20:28.026Z,776
2022-10-22T12:21:28.156Z,768
2022-10-22T12:22:28.030Z,764
2022-10-22T12:23:31.065Z,756
2022-10-22T12:24:28.224Z,756
2022-10-22T12:25:30.067Z,756
2022-10-22T12:26:28.270Z,756
2022-10-22T12:27:29.961Z,760
2022-10-22T12:28:28.091Z,228
2022-10-22T12:29:28.046Z,240
2022-10-22T12:30:31.029Z,240
2022-10-22T12:31:28.041Z,236
2022-10-22T12:32:28.030Z,240
2022-10-22T12:33:28.045Z,500
2022-10-22T12:34:31.065Z,776
2022-10-22T12:35:28.071Z,656
2022-10-22T12:36:31.088Z,760
2022-10-22T12:37:28.065Z,752
2022-10-22T12:38:29.157Z,676
2022-10-22T12:39:28.065Z,208
2022-10-22T12:40:28.066Z,196
2022-10-22T12:41:28.159Z,224
2022-10-22T12:42:28.107Z,748
2022-10-22T12:43:28.063Z,764
2022-10-22T12:44:28.054Z,764
2022-10-22T12:45:29.173Z,632
2022-10-22T12:46:28.069Z,816
2022-10-22T12:47:28.059Z,816
2022-10-22T12:48:28.073Z,816
2022-10-22T12:49:28.064Z,796
2022-10-22T12:50:28.557Z,772
2022-10-22T12:51:28.345Z,752
2022-10-22T12:52:28.099Z,740
2022-10-22T12:53:28.064Z,188
2022-10-22T12:54:28.099Z,180
2022-10-22T12:55:28.139Z,164
2022-10-22T12:56:28.080Z,160
2022-10-22T12:57:28.092Z,152
2022-10-22T12:58:28.104Z,156
2022-10-22T12:59:28.107Z,148
2022-10-22T13:00:28.470Z,148
2022-10-22T13:01:28.137Z,156
2022-10-22T13:02:28.077Z,156
2022-10-22T13:03:28.090Z,168
2022-10-22T13:04:28.094Z,600
2022-10-22T13:05:28.126Z,328
2022-10-22T13:06:28.107Z,720
2022-10-22T13:07:29.195Z,708
2022-10-22T13:08:28.201Z,708
2022-10-22T13:09:36.414Z,712
2022-10-22T13:10:28.122Z,716
2022-10-22T13:11:28.130Z,716
2022-10-22T13:12:28.108Z,716
2022-10-22T13:13:28.112Z,716
2022-10-22T13:14:28.124Z,716
2022-10-22T13:15:28.145Z,720
2022-10-22T13:16:28.411Z,732
2022-10-22T13:17:30.999Z,740
2022-10-22T13:18:28.119Z,756
2022-10-22T13:19:28.126Z,772
2022-10-22T13:20:28.144Z,780
2022-10-22T13:21:28.144Z,780
2022-10-22T13:22:28.142Z,776
2022-10-22T13:23:29.316Z,772
2022-10-22T13:24:28.164Z,780
2022-10-22T13:25:28.185Z,776
2022-10-22T13:26:28.128Z,776
2022-10-22T13:27:28.469Z,772
2022-10-22T13:28:31.329Z,756
2022-10-22T13:29:33.744Z,740
2022-10-22T13:30:28.164Z,740
2022-10-22T13:31:28.135Z,740
2022-10-22T13:32:28.246Z,732
2022-10-22T13:33:30.937Z,732
2022-10-22T13:34:28.226Z,732
2022-10-22T13:35:29.014Z,736
2022-10-22T13:36:32.316Z,736
2022-10-22T13:37:28.156Z,740
2022-10-22T13:38:28.178Z,744
2022-10-22T13:39:31.217Z,748
2022-10-22T13:40:28.183Z,748
2022-10-22T13:41:28.399Z,756
2022-10-22T13:42:28.168Z,756
2022-10-22T13:43:28.189Z,776
2022-10-22T13:44:31.411Z,752
2022-10-22T13:45:28.236Z,748
2022-10-22T13:46:28.303Z,748
2022-10-22T13:47:28.270Z,752
2022-10-22T13:48:31.206Z,748
2022-10-22T13:49:28.306Z,752
2022-10-22T13:50:28.792Z,756
2022-10-22T13:51:28.175Z,764
2022-10-22T13:52:31.594Z,776
2022-10-22T13:53:31.473Z,780
2022-10-22T13:54:28.230Z,784
2022-10-22T13:55:31.277Z,784
2022-10-22T13:56:28.396Z,780
2022-10-22T13:57:28.408Z,772
2022-10-22T13:58:33.562Z,764
2022-10-22T13:59:30.925Z,768
2022-10-22T14:00:28.591Z,768
2022-10-22T14:01:31.416Z,768
2022-10-22T14:02:28.201Z,764
2022-10-22T14:03:28.213Z,764
2022-10-22T14:04:28.237Z,756
2022-10-22T14:05:28.212Z,756
2022-10-22T14:06:31.411Z,756
2022-10-22T14:07:28.209Z,756
2022-10-22T14:08:28.234Z,756
2022-10-22T14:09:28.337Z,752
2022-10-22T14:10:28.262Z,752
2022-10-22T14:11:28.287Z,748
2022-10-22T14:12:31.027Z,744
2022-10-22T14:13:28.323Z,736
2022-10-22T14:14:28.261Z,736
2022-10-22T14:15:28.393Z,728
2022-10-22T14:16:28.319Z,724
2022-10-22T14:17:31.118Z,720